Time;durP1;ratioP1;P1;durP2;ratioP2;P2;SDS_P1;SDS_P2;PMS_P1;PMS_P2;Temp;Humidity;BMP_temperature;BMP_pressure;BME280_temperature;BME280_humidity;BME280_pressure;Samples;Min_cycle;Max_cycle;Signal;HPM_P1;HPM_P2
2022/01/24 00:01:40;;;;;;;4.90;2.38;;;21.70;64.00;;;;;;7810872;28;20178;-50
2022/01/24 00:05:25;;;;;;;8.95;2.08;;;21.70;64.00;;;;;;7810635;28;20592;-50
2022/01/24 00:09:12;;;;;;;9.45;2.40;;;21.70;64.00;;;;;;7810251;28;20198;-51
2022/01/24 00:28:24;;;;;;;6.05;2.50;;;21.50;64.10;;;;;;7810122;28;20775;-51
2022/01/24 00:32:10;;;;;;;4.63;2.80;;;21.50;64.20;;;;;;7809792;28;20202;-54
2022/01/24 00:35:56;;;;;;;3.42;2.50;;;21.50;64.20;;;;;;7809768;28;20178;-53
2022/01/24 00:39:42;;;;;;;7.82;2.17;;;21.50;64.30;;;;;;7809362;28;20197;-51
2022/01/24 00:43:39;;;;;;;3.92;2.50;;;21.40;64.10;;;;;;7809464;28;20171;-53
2022/01/24 00:47:30;;;;;;;4.35;2.30;;;21.40;64.10;;;;;;7809193;28;20566;-53
2022/01/24 00:55:20;;;;;;;5.85;2.42;;;21.40;64.10;;;;;;7809632;28;20175;-49
2022/01/24 00:59:05;;;;;;;4.03;2.42;;;21.40;64.10;;;;;;7808739;28;20233;-50
2022/01/24 01:02:51;;;;;;;3.72;2.33;;;21.40;64.10;;;;;;7809124;28;20197;-51
2022/01/24 01:06:40;;;;;;;5.40;2.35;;;21.40;64.10;;;;;;7808996;28;20183;-49
2022/01/24 01:18:33;;;;;;;3.20;2.05;;;21.30;64.20;;;;;;7808183;28;20191;-52
2022/01/24 01:22:19;;;;;;;4.00;2.15;;;21.30;64.10;;;;;;7808355;28;20198;-49
2022/01/24 01:26:10;;;;;;;4.97;2.53;;;21.20;64.20;;;;;;7808265;28;20179;-51
2022/01/24 01:30:04;;;;;;;2.05;1.85;;;21.30;64.20;;;;;;7807883;28;20240;-52
2022/01/24 01:58:29;;;;;;;2.42;1.75;;;21.10;64.20;;;;;;7806336;28;20822;-54
2022/01/24 02:02:15;;;;;;;5.00;1.98;;;21.10;64.20;;;;;;7807435;28;20612;-49
2022/01/24 02:06:01;;;;;;;3.30;1.63;;;21.10;64.20;;;;;;7807428;28;20194;-52
2022/01/24 02:09:47;;;;;;;1.63;1.52;;;21.10;64.20;;;;;;7807228;28;20207;-52
2022/01/24 02:13:32;;;;;;;2.60;1.65;;;21.00;64.10;;;;;;7807302;28;20209;-51
2022/01/24 02:17:29;;;;;;;1.90;1.63;;;21.00;64.20;;;;;;7807351;28;20196;-51
2022/01/24 02:21:43;;;;;;;2.65;1.60;;;21.00;64.30;;;;;;7807242;28;20178;-50
2022/01/24 02:25:31;;;;;;;1.73;1.50;;;21.00;64.20;;;;;;7807116;28;20225;-51
2022/01/24 02:29:32;;;;;;;1.88;1.38;;;21.00;64.20;;;;;;7806790;28;20198;-49
2022/01/24 02:33:18;;;;;;;2.15;1.45;;;21.00;64.30;;;;;;7806880;28;20198;-52
2022/01/24 02:37:08;;;;;;;2.55;1.30;;;21.00;64.30;;;;;;7807022;28;20750;-54
2022/01/24 02:49:02;;;;;;;1.42;1.25;;;20.90;64.30;;;;;;7813085;28;20199;-50
2022/01/24 02:52:48;;;;;;;2.03;1.42;;;20.90;64.30;;;;;;7812720;28;20268;-50
2022/01/24 02:56:33;;;;;;;1.85;1.40;;;20.90;64.40;;;;;;7812714;28;20265;-49
2022/01/24 03:00:19;;;;;;;1.52;1.42;;;20.90;64.40;;;;;;7812222;28;20894;-49
2022/01/24 03:04:04;;;;;;;3.22;1.30;;;20.90;64.40;;;;;;7812402;28;20667;-50
2022/01/24 03:07:50;;;;;;;2.95;1.20;;;20.90;64.40;;;;;;7812144;28;20238;-52
2022/01/24 03:15:41;;;;;;;1.58;1.33;;;20.80;64.40;;;;;;7812258;28;20178;-53
2022/01/24 03:19:26;;;;;;;1.98;1.48;;;20.80;64.50;;;;;;7811826;28;20201;-49
2022/01/24 03:23:14;;;;;;;1.77;1.58;;;20.80;64.60;;;;;;7812063;28;20194;-50
2022/01/24 03:26:59;;;;;;;3.55;1.50;;;20.80;64.60;;;;;;7811784;28;20174;-49
2022/01/24 03:30:45;;;;;;;1.50;1.40;;;20.80;64.60;;;;;;7811352;28;20699;-52
2022/01/24 03:34:31;;;;;;;1.60;1.50;;;20.70;64.60;;;;;;7811532;28;20203;-52
2022/01/24 03:38:16;;;;;;;1.50;1.40;;;20.70;64.60;;;;;;7811187;28;20734;-49
2022/01/24 03:42:02;;;;;;;1.55;1.45;;;20.70;64.80;;;;;;7811487;28;20178;-49
2022/01/24 03:46:09;;;;;;;1.60;1.50;;;20.70;64.70;;;;;;7811179;28;20190;-51
2022/01/24 03:49:53;;;;;;;1.65;1.55;;;20.70;64.70;;;;;;7810547;28;20733;-49
2022/01/24 03:53:39;;;;;;;2.08;1.85;;;20.70;64.70;;;;;;7810051;28;20841;-50
2022/01/24 03:57:26;;;;;;;1.92;1.58;;;20.70;64.70;;;;;;7810634;28;20276;-49
2022/01/24 04:01:12;;;;;;;1.70;1.60;;;20.70;64.80;;;;;;7810633;28;20262;-49
2022/01/24 04:04:57;;;;;;;1.70;1.38;;;20.60;64.80;;;;;;7810701;28;20182;-49
2022/01/24 04:08:43;;;;;;;1.55;1.45;;;20.60;64.80;;;;;;7810252;28;20194;-50
2022/01/24 04:12:28;;;;;;;2.75;1.50;;;20.60;64.80;;;;;;7810404;28;20244;-52
2022/01/24 04:16:30;;;;;;;3.83;1.67;;;20.60;64.90;;;;;;7810369;28;20175;-52
2022/01/24 04:24:23;;;;;;;2.42;1.42;;;20.60;64.90;;;;;;7798782;28;20198;-51
2022/01/24 04:28:10;;;;;;;4.05;1.80;;;20.60;65.00;;;;;;7809689;28;20203;-51
2022/01/24 04:31:56;;;;;;;1.45;1.35;;;20.60;65.10;;;;;;7810436;28;20360;-51
2022/01/24 04:35:42;;;;;;;1.50;1.40;;;20.60;65.00;;;;;;7809988;28;20241;-49
2022/01/24 04:39:27;;;;;;;1.70;1.50;;;20.50;64.90;;;;;;7809414;28;20266;-54
2022/01/24 04:43:31;;;;;;;4.40;1.40;;;20.50;64.90;;;;;;7809516;28;20179;-53
2022/01/24 04:47:33;;;;;;;4.05;1.50;;;20.50;64.90;;;;;;7809397;28;20202;-52
2022/01/24 04:51:36;;;;;;;4.78;1.60;;;20.50;65.00;;;;;;7809426;28;20810;-51
2022/01/24 04:55:21;;;;;;;1.67;1.50;;;20.50;65.10;;;;;;7834727;28;20190;-49
2022/01/24 04:59:07;;;;;;;1.52;1.40;;;20.50;65.30;;;;;;7839354;28;20197;-53
2022/01/24 05:02:53;;;;;;;4.82;1.73;;;20.50;65.10;;;;;;7813233;28;20193;-52
2022/01/24 05:06:38;;;;;;;1.83;1.40;;;20.50;64.90;;;;;;7838682;28;20185;-50
2022/01/24 05:10:33;;;;;;;3.78;2.00;;;20.50;64.80;;;;;;7823064;28;20210;-52
2022/01/24 05:26:48;;;;;;;14.15;2.25;;;20.50;65.60;;;;;;7835870;28;20675;-51
2022/01/24 05:30:33;;;;;;;13.15;2.35;;;20.60;65.90;;;;;;7811403;28;20599;-48
2022/01/24 05:34:19;;;;;;;5.60;1.65;;;20.60;66.00;;;;;;7830979;28;20218;-53
2022/01/24 05:38:04;;;;;;;7.50;1.60;;;20.60;66.80;;;;;;7832075;28;20217;-49
2022/01/24 05:41:50;;;;;;;39.72;2.45;;;20.70;67.10;;;;;;7806747;28;20175;-51
2022/01/24 05:45:36;;;;;;;22.20;2.60;;;20.70;67.10;;;;;;7806314;28;20745;-49
2022/01/24 05:49:21;;;;;;;31.52;2.22;;;20.80;67.40;;;;;;7806325;28;20202;-52
2022/01/24 05:53:07;;;;;;;27.95;2.38;;;20.90;67.20;;;;;;7811251;28;20210;-50
2022/01/24 05:56:52;;;;;;;32.63;2.58;;;21.00;68.00;;;;;;7835781;28;20255;-49
2022/01/24 06:00:38;;;;;;;20.20;1.90;;;21.10;68.00;;;;;;7837268;28;20269;-49
2022/01/24 06:04:24;;;;;;;15.15;2.00;;;21.20;68.00;;;;;;7814467;28;20373;-51
2022/01/24 06:08:10;;;;;;;19.02;1.88;;;21.30;67.90;;;;;;7812914;28;20247;-49
2022/01/24 06:11:55;;;;;;;18.05;1.90;;;21.50;67.90;;;;;;7827965;28;20202;-53
2022/01/24 06:15:42;;;;;;;14.05;1.80;;;21.60;67.90;;;;;;7806706;28;20704;-49
2022/01/24 06:19:28;;;;;;;17.23;1.88;;;21.70;67.80;;;;;;7804719;28;20256;-51
2022/01/24 06:23:17;;;;;;;15.65;2.00;;;21.70;67.80;;;;;;7805696;28;20186;-50
2022/01/24 06:27:02;;;;;;;18.38;1.77;;;21.80;68.00;;;;;;7806489;28;20198;-51
2022/01/24 06:30:48;;;;;;;14.07;1.65;;;21.90;67.80;;;;;;7805682;28;20213;-52
2022/01/24 06:34:34;;;;;;;13.90;1.40;;;22.00;67.90;;;;;;7833839;28;20221;-52
2022/01/24 06:38:19;;;;;;;13.55;1.50;;;22.00;68.00;;;;;;7827789;28;20213;-53
2022/01/24 06:42:14;;;;;;;3.88;1.27;;;22.00;68.10;;;;;;7805679;28;20206;-50
2022/01/24 06:46:01;;;;;;;11.63;1.38;;;22.00;67.80;;;;;;7805648;28;20248;-52
2022/01/24 06:49:46;;;;;;;12.68;1.70;;;22.00;68.20;;;;;;7805585;28;20756;-52
2022/01/24 06:53:31;;;;;;;19.65;1.98;;;21.90;67.90;;;;;;7805507;28;20267;-52
2022/01/24 06:57:17;;;;;;;14.93;1.77;;;22.00;68.40;;;;;;7824318;28;20217;-50
2022/01/24 07:01:03;;;;;;;8.52;1.60;;;22.00;68.10;;;;;;7835960;28;20206;-49
2022/01/24 07:04:49;;;;;;;11.52;1.75;;;21.90;68.20;;;;;;7836232;28;20641;-49
2022/01/24 07:08:34;;;;;;;7.53;1.77;;;21.90;68.10;;;;;;7835686;28;20384;-52
2022/01/24 07:12:22;;;;;;;10.55;2.08;;;21.90;68.10;;;;;;7836300;28;20610;-49
2022/01/24 07:16:07;;;;;;;14.07;2.03;;;21.90;68.30;;;;;;7816249;28;20586;-50
2022/01/24 07:19:53;;;;;;;16.33;2.10;;;22.00;68.40;;;;;;7802840;28;20293;-50
2022/01/24 07:23:38;;;;;;;10.40;1.95;;;22.00;68.30;;;;;;7805235;28;20193;-51
2022/01/24 07:27:24;;;;;;;13.45;2.25;;;21.80;68.10;;;;;;7805335;28;20214;-50
2022/01/24 07:31:09;;;;;;;9.00;2.00;;;21.80;68.30;;;;;;7811576;28;20194;-52
2022/01/24 07:34:55;;;;;;;14.52;2.63;;;21.80;68.30;;;;;;7810024;28;20340;-54
2022/01/24 07:38:41;;;;;;;15.07;2.40;;;21.90;68.50;;;;;;7818746;28;20627;-50
2022/01/24 07:42:51;;;;;;;10.75;3.20;;;21.80;68.50;;;;;;7841461;28;20181;-50
2022/01/24 07:46:35;;;;;;;11.30;2.20;;;21.90;68.70;;;;;;7834878;28;20257;-52
2022/01/24 07:50:26;;;;;;;10.40;2.08;;;21.90;68.80;;;;;;7810026;28;20206;-50
2022/01/24 07:54:11;;;;;;;16.13;2.10;;;21.80;68.60;;;;;;7827442;28;20218;-52
2022/01/24 07:57:57;;;;;;;15.35;2.42;;;21.80;68.60;;;;;;7832417;28;20206;-49
2022/01/24 08:01:43;;;;;;;13.80;2.45;;;21.70;68.40;;;;;;7821879;28;20554;-50
2022/01/24 08:05:29;;;;;;;20.23;2.00;;;21.70;68.70;;;;;;7810565;28;20183;-51
2022/01/24 08:09:14;;;;;;;11.00;2.15;;;21.70;68.50;;;;;;7822130;28;20206;-52
2022/01/24 08:13:00;;;;;;;20.42;2.40;;;21.70;69.60;;;;;;7809386;28;20288;-51
2022/01/24 08:16:45;;;;;;;15.20;3.08;;;21.70;68.80;;;;;;7809567;28;20347;-51
2022/01/24 08:20:31;;;;;;;8.13;2.22;;;21.70;68.80;;;;;;7808869;28;20207;-50
2022/01/24 08:24:17;;;;;;;17.95;2.30;;;21.70;69.10;;;;;;7827041;28;20674;-50
2022/01/24 08:28:03;;;;;;;14.63;2.33;;;21.70;69.20;;;;;;7839893;28;20698;-52
2022/01/24 08:31:48;;;;;;;23.02;3.03;;;21.70;69.30;;;;;;7839768;28;20194;-49
2022/01/24 08:35:34;;;;;;;15.73;2.25;;;21.70;69.40;;;;;;7821289;28;20266;-51
2022/01/24 08:39:19;;;;;;;9.05;2.05;;;21.70;69.40;;;;;;7827807;28;20695;-52
2022/01/24 08:43:06;;;;;;;11.57;2.00;;;21.70;69.40;;;;;;7838844;28;20520;-53
2022/01/24 08:46:52;;;;;;;7.78;2.08;;;21.70;69.30;;;;;;7830806;28;20198;-52
2022/01/24 08:50:38;;;;;;;16.17;2.83;;;21.70;69.30;;;;;;7808170;28;20293;-50
2022/01/24 08:54:25;;;;;;;5.55;2.17;;;21.70;69.30;;;;;;7828296;28;20961;-51
2022/01/24 08:58:13;;;;;;;11.77;2.47;;;21.70;68.90;;;;;;7839034;28;20675;-53
2022/01/24 09:02:00;;;;;;;8.75;2.00;;;21.80;68.80;;;;;;7816013;28;20266;-50
2022/01/24 09:05:48;;;;;;;10.43;2.13;;;21.80;68.80;;;;;;7819374;28;20210;-49
2022/01/24 09:09:34;;;;;;;12.55;2.33;;;21.90;68.80;;;;;;7827253;28;20294;-54
2022/01/24 09:13:21;;;;;;;10.07;2.00;;;21.90;68.70;;;;;;7838420;28;20200;-50
2022/01/24 09:17:06;;;;;;;10.55;2.10;;;22.00;68.70;;;;;;7838661;28;20174;-49
2022/01/24 09:20:52;;;;;;;15.02;2.20;;;22.10;68.70;;;;;;7838174;28;20202;-49
2022/01/24 09:24:38;;;;;;;12.48;2.03;;;22.20;68.50;;;;;;7815369;28;20542;-50
2022/01/24 09:28:23;;;;;;;20.95;1.95;;;22.20;68.50;;;;;;7827801;28;20720;-49
2022/01/24 09:32:09;;;;;;;10.30;1.85;;;22.30;68.40;;;;;;7832006;28;20217;-49
2022/01/24 09:36:00;;;;;;;11.70;1.98;;;22.30;68.30;;;;;;7827213;28;20249;-51
2022/01/24 09:39:45;;;;;;;12.30;2.10;;;22.40;68.30;;;;;;7831044;28;20210;-49
2022/01/24 09:43:31;;;;;;;18.85;2.15;;;22.40;68.20;;;;;;7838277;28;20257;-50
2022/01/24 09:47:17;;;;;;;13.07;2.15;;;22.50;68.30;;;;;;7837744;28;20247;-49
2022/01/24 09:51:03;;;;;;;13.77;2.05;;;22.50;68.40;;;;;;7837128;28;20233;-53
2022/01/24 09:54:48;;;;;;;5.40;1.67;;;22.50;68.40;;;;;;7812023;28;20234;-52
2022/01/24 09:58:36;;;;;;;15.45;1.98;;;22.50;68.40;;;;;;7808304;28;20215;-50
2022/01/24 10:02:24;;;;;;;3.65;1.50;;;22.50;68.50;;;;;;7806360;28;20595;-52
2022/01/24 10:06:10;;;;;;;10.73;2.17;;;22.60;68.60;;;;;;7806313;28;20538;-52
2022/01/24 10:10:00;;;;;;;6.10;2.00;;;22.60;68.70;;;;;;7806162;28;20206;-53
2022/01/24 10:17:50;;;;;;;14.80;1.73;;;22.60;68.70;;;;;;7805926;28;20721;-51
2022/01/24 10:21:51;;;;;;;6.50;1.60;;;22.60;68.70;;;;;;7806157;28;20193;-50
2022/01/24 10:25:59;;;;;;;10.98;1.92;;;22.50;68.50;;;;;;7806069;28;20182;-53
2022/01/24 10:30:07;;;;;;;11.55;2.30;;;22.50;68.40;;;;;;7805486;28;20344;-52
2022/01/24 10:34:22;;;;;;;7.88;1.95;;;22.40;68.50;;;;;;7806120;28;20288;-53
2022/01/24 10:46:20;;;;;;;5.65;1.83;;;22.50;68.80;;;;;;7826831;28;20229;-50
2022/01/24 10:50:07;;;;;;;10.75;1.55;;;22.50;68.90;;;;;;7829417;28;20217;-52
2022/01/24 10:53:57;;;;;;;6.00;1.55;;;22.50;68.90;;;;;;7832853;28;20623;-53
2022/01/24 10:57:44;;;;;;;6.05;1.65;;;22.50;69.00;;;;;;7812458;28;20293;-55
2022/01/24 11:01:29;;;;;;;6.15;1.50;;;22.40;68.80;;;;;;7806172;28;20251;-52
2022/01/24 11:05:18;;;;;;;8.30;1.77;;;22.30;68.80;;;;;;7818814;28;20174;-51
2022/01/24 11:09:24;;;;;;;9.18;1.40;;;22.40;68.90;;;;;;7839262;28;20281;-50
2022/01/24 11:13:10;;;;;;;11.25;2.50;;;22.30;68.80;;;;;;7839809;28;20202;-50
2022/01/24 11:16:58;;;;;;;10.15;1.73;;;22.30;69.10;;;;;;7841894;28;20655;-49
2022/01/24 11:20:46;;;;;;;9.85;1.83;;;22.30;69.10;;;;;;7814509;28;20202;-50
2022/01/24 11:24:41;;;;;;;13.77;2.28;;;22.20;69.40;;;;;;7823374;28;20687;-50
2022/01/24 11:28:27;;;;;;;11.77;1.30;;;22.10;69.10;;;;;;7810745;28;20204;-50
2022/01/24 11:32:30;;;;;;;8.20;1.48;;;22.10;69.30;;;;;;7810604;28;20206;-50
2022/01/24 11:36:16;;;;;;;9.65;1.52;;;22.10;69.30;;;;;;7810712;28;20186;-50
2022/01/24 11:40:09;;;;;;;14.25;1.73;;;22.10;69.20;;;;;;7838681;28;20236;-49
2022/01/24 11:44:00;;;;;;;18.25;1.80;;;22.10;69.30;;;;;;7840221;28;20193;-50
2022/01/24 11:47:46;;;;;;;17.33;2.10;;;22.00;69.50;;;;;;7809851;28;20249;-50
2022/01/24 11:51:33;;;;;;;8.90;2.38;;;22.00;69.80;;;;;;7810373;28;20846;-50
2022/01/24 11:55:34;;;;;;;12.25;1.83;;;22.00;69.80;;;;;;7809492;28;20249;-54
2022/01/24 11:59:22;;;;;;;10.25;2.10;;;22.10;70.30;;;;;;7809980;28;20190;-50
2022/01/24 12:03:23;;;;;;;9.23;2.03;;;22.00;70.40;;;;;;7809319;28;20181;-50
2022/01/24 12:07:17;;;;;;;8.57;1.75;;;22.10;70.60;;;;;;7824349;28;20736;-49
2022/01/24 12:11:21;;;;;;;4.95;1.70;;;22.00;71.10;;;;;;7840282;28;20212;-49
2022/01/24 12:15:08;;;;;;;9.00;1.90;;;22.00;71.30;;;;;;7839114;28;20198;-50
2022/01/24 12:18:58;;;;;;;13.57;3.35;;;22.00;71.10;;;;;;7840573;28;20284;-51
2022/01/24 12:22:43;;;;;;;4.05;1.88;;;22.00;71.20;;;;;;7829722;28;20190;-49
2022/01/24 12:26:42;;;;;;;6.30;1.65;;;22.00;71.60;;;;;;7808874;28;20274;-51
2022/01/24 12:31:01;;;;;;;5.55;1.77;;;22.00;72.00;;;;;;7810001;28;20914;-50
2022/01/24 12:34:47;;;;;;;8.82;1.80;;;21.90;72.10;;;;;;7808048;28;20225;-55
2022/01/24 12:38:48;;;;;;;13.45;2.28;;;21.90;72.10;;;;;;7815494;28;20214;-49
2022/01/24 12:46:33;;;;;;;6.32;1.85;;;21.90;71.80;;;;;;7838814;28;20190;-52
2022/01/24 12:50:19;;;;;;;5.35;1.92;;;21.90;72.20;;;;;;7839210;28;20201;-52
2022/01/24 12:54:05;;;;;;;7.40;2.00;;;21.90;71.90;;;;;;7816966;28;20210;-52
2022/01/24 12:57:50;;;;;;;9.98;1.77;;;21.80;72.10;;;;;;7807734;28;20679;-52
2022/01/24 13:01:37;;;;;;;2.25;1.60;;;21.80;71.90;;;;;;7807961;28;20689;-50
2022/01/24 13:05:23;;;;;;;7.13;2.03;;;21.80;72.10;;;;;;7807301;28;20269;-54
2022/01/24 13:09:19;;;;;;;7.75;1.92;;;21.70;72.20;;;;;;7830655;28;20253;-50
2022/01/24 13:13:10;;;;;;;5.47;2.03;;;21.70;72.20;;;;;;7836344;28;20220;-53
2022/01/24 13:21:09;;;;;;;3.35;1.80;;;21.70;72.20;;;;;;7838815;28;20284;-49
2022/01/24 13:25:02;;;;;;;5.53;1.60;;;21.70;72.10;;;;;;7808071;28;20191;-50
2022/01/24 13:28:47;;;;;;;8.20;2.00;;;21.70;72.10;;;;;;7807099;28;20199;-52
2022/01/24 13:32:50;;;;;;;3.83;1.80;;;21.70;72.00;;;;;;7807095;28;20297;-49
2022/01/24 13:36:38;;;;;;;7.00;2.00;;;21.60;71.80;;;;;;7808999;28;20316;-53
2022/01/24 13:40:32;;;;;;;6.68;1.80;;;21.70;72.10;;;;;;7838320;28;20233;-50
2022/01/24 13:44:18;;;;;;;6.22;1.33;;;21.60;71.20;;;;;;7837457;28;20251;-50
2022/01/24 13:48:06;;;;;;;3.50;1.80;;;21.60;71.20;;;;;;7808287;28;20226;-50
2022/01/24 13:51:53;;;;;;;11.57;2.13;;;21.50;71.00;;;;;;7806928;28;20194;-50
2022/01/24 13:55:40;;;;;;;2.95;1.83;;;21.50;71.20;;;;;;7805686;28;20183;-53
2022/01/24 13:59:26;;;;;;;8.45;2.00;;;21.60;71.20;;;;;;7806416;28;20687;-50
2022/01/24 14:03:11;;;;;;;8.07;1.88;;;21.60;71.00;;;;;;7806225;28;20605;-51
2022/01/24 14:07:00;;;;;;;8.50;1.95;;;21.70;70.80;;;;;;7805947;28;20555;-50
2022/01/24 14:10:46;;;;;;;7.13;1.92;;;21.70;70.60;;;;;;7805593;28;20229;-54
2022/01/24 14:14:52;;;;;;;4.88;1.80;;;21.80;70.50;;;;;;7805509;28;20284;-52
2022/01/24 14:18:37;;;;;;;3.30;1.58;;;21.80;70.40;;;;;;7805879;28;20614;-50
2022/01/24 14:22:34;;;;;;;10.25;2.55;;;21.90;70.40;;;;;;7815894;28;20271;-53
2022/01/24 14:26:23;;;;;;;10.65;4.80;;;22.00;70.30;;;;;;7835663;28;20186;-52
2022/01/24 14:30:12;;;;;;;10.63;3.33;;;22.10;70.10;;;;;;7813593;28;20206;-55
2022/01/24 14:34:08;;;;;;;5.90;2.80;;;22.00;69.40;;;;;;7804258;28;20206;-53
2022/01/24 14:37:55;;;;;;;10.80;2.85;;;22.00;69.30;;;;;;7806146;28;20202;-52
2022/01/24 14:41:46;;;;;;;12.75;2.90;;;22.10;69.20;;;;;;7813363;28;20171;-51
2022/01/24 14:45:32;;;;;;;9.80;2.70;;;22.20;69.10;;;;;;7813055;28;20277;-55
2022/01/24 14:49:21;;;;;;;6.50;2.35;;;22.40;68.80;;;;;;7812764;28;20209;-55
2022/01/24 14:53:08;;;;;;;7.70;2.72;;;22.60;68.60;;;;;;7812970;28;20695;-54
2022/01/24 14:56:58;;;;;;;7.60;2.50;;;22.70;68.40;;;;;;7813079;28;20819;-55
2022/01/24 15:00:43;;;;;;;4.45;2.25;;;22.90;69.10;;;;;;7812774;28;20210;-56
2022/01/24 15:04:29;;;;;;;8.43;2.25;;;23.00;68.10;;;;;;7812831;28;20327;-53
2022/01/24 15:08:14;;;;;;;5.53;2.08;;;23.10;67.90;;;;;;7812303;28;20224;-53
2022/01/24 15:12:04;;;;;;;4.35;2.33;;;23.30;67.80;;;;;;7812443;28;20210;-56
2022/01/24 15:16:00;;;;;;;3.08;1.90;;;23.40;67.50;;;;;;7812596;28;20237;-53
2022/01/24 15:24:11;;;;;;;3.63;2.08;;;23.60;67.20;;;;;;7812571;28;20179;-52
2022/01/24 15:27:57;;;;;;;4.22;2.10;;;23.70;67.00;;;;;;7811464;28;20221;-52
2022/01/24 15:31:43;;;;;;;4.13;2.10;;;23.80;67.00;;;;;;7811961;28;20692;-52
2022/01/24 15:35:29;;;;;;;2.58;2.00;;;23.90;66.80;;;;;;7811726;28;20186;-51
2022/01/24 15:39:16;;;;;;;3.90;1.77;;;23.90;66.80;;;;;;7811261;28;20194;-51
2022/01/24 15:43:07;;;;;;;7.22;1.77;;;24.00;66.80;;;;;;7811513;28;20187;-53
2022/01/24 15:47:02;;;;;;;8.05;1.98;;;24.00;66.70;;;;;;7811407;28;20266;-51
2022/01/24 15:50:48;;;;;;;16.73;2.42;;;24.10;66.60;;;;;;7811089;28;20208;-53
2022/01/24 15:54:34;;;;;;;9.38;2.20;;;24.10;66.50;;;;;;7811065;28;20214;-54
2022/01/24 15:58:19;;;;;;;18.33;3.00;;;24.10;66.50;;;;;;7810676;28;20205;-51
2022/01/24 16:02:04;;;;;;;13.13;1.95;;;24.00;66.50;;;;;;7810951;28;20224;-51
2022/01/24 16:05:50;;;;;;;13.32;2.65;;;24.10;67.00;;;;;;7810917;28;20649;-53
2022/01/24 16:09:36;;;;;;;13.27;2.30;;;24.00;66.40;;;;;;7810419;28;20194;-52
2022/01/24 16:13:22;;;;;;;7.97;2.30;;;24.10;66.40;;;;;;7810595;28;20206;-52
2022/01/24 16:17:08;;;;;;;6.28;2.15;;;24.10;66.40;;;;;;7810512;28;20658;-52
2022/01/24 16:28:31;;;;;;;6.85;2.40;;;24.00;66.40;;;;;;7810007;28;20210;-52
2022/01/24 16:32:17;;;;;;;2.80;2.20;;;24.00;66.40;;;;;;7810146;28;20201;-51
2022/01/24 16:36:07;;;;;;;5.75;2.88;;;24.00;66.30;;;;;;7810129;28;20656;-52
2022/01/24 16:39:52;;;;;;;10.60;2.85;;;24.00;66.20;;;;;;7809769;28;20700;-51
2022/01/24 16:43:52;;;;;;;4.82;2.67;;;24.00;66.20;;;;;;7810003;28;20654;-56
2022/01/24 16:47:37;;;;;;;4.28;2.75;;;23.90;66.20;;;;;;7809461;28;20217;-53
2022/01/24 16:51:22;;;;;;;10.85;2.92;;;23.90;66.20;;;;;;7809540;28;20193;-56
2022/01/24 16:55:08;;;;;;;6.47;3.13;;;24.00;66.20;;;;;;7809543;28;20211;-55
2022/01/24 16:58:54;;;;;;;8.77;3.10;;;23.90;66.00;;;;;;7808907;28;20273;-53
2022/01/24 17:02:40;;;;;;;3.05;2.75;;;23.90;66.10;;;;;;7808717;28;20202;-56
2022/01/24 17:06:25;;;;;;;7.72;3.22;;;23.90;66.00;;;;;;7809076;28;20175;-56
2022/01/24 17:10:11;;;;;;;4.35;3.50;;;23.90;66.00;;;;;;7808627;28;20210;-56
2022/01/24 17:13:59;;;;;;;4.18;3.25;;;23.90;65.90;;;;;;7808816;28;20281;-56
2022/01/24 17:17:45;;;;;;;5.05;3.67;;;23.90;65.90;;;;;;7808448;28;20198;-54
2022/01/24 17:21:30;;;;;;;4.60;3.65;;;23.90;65.90;;;;;;7808647;28;20178;-52
2022/01/24 17:25:16;;;;;;;4.18;3.60;;;23.90;65.70;;;;;;7808441;28;20918;-52
2022/01/24 17:29:01;;;;;;;4.22;3.70;;;23.90;65.70;;;;;;7808048;28;20202;-51
2022/01/24 17:32:47;;;;;;;4.75;3.50;;;23.80;65.50;;;;;;7808402;28;20207;-53
2022/01/24 17:36:32;;;;;;;10.70;3.90;;;23.80;65.50;;;;;;7808207;28;20232;-51
2022/01/24 17:40:19;;;;;;;6.55;3.85;;;23.80;65.50;;;;;;7807735;28;20221;-51
2022/01/24 17:44:05;;;;;;;7.93;3.80;;;23.70;65.20;;;;;;7808011;28;20612;-52
2022/01/24 17:47:50;;;;;;;9.80;3.95;;;23.70;65.80;;;;;;7807535;28;20279;-54
2022/01/24 17:51:36;;;;;;;4.05;3.55;;;23.70;64.70;;;;;;7807832;28;20202;-54
2022/01/24 17:55:23;;;;;;;4.90;3.78;;;23.70;64.40;;;;;;7807622;28;20972;-51
2022/01/24 17:59:08;;;;;;;5.38;4.00;;;23.70;64.10;;;;;;7807328;28;20197;-53
2022/01/24 18:02:54;;;;;;;3.75;3.40;;;23.70;63.60;;;;;;7807579;28;20179;-52
2022/01/24 18:06:40;;;;;;;4.05;3.65;;;23.60;62.90;;;;;;7807524;28;20179;-52
2022/01/24 18:10:25;;;;;;;4.70;4.05;;;23.60;63.00;;;;;;7807071;28;20226;-53
2022/01/24 18:14:10;;;;;;;3.78;3.47;;;23.50;62.70;;;;;;7806616;28;20229;-51
2022/01/24 18:17:56;;;;;;;5.88;4.00;;;23.40;62.50;;;;;;7807121;28;20237;-51
2022/01/24 18:21:42;;;;;;;3.50;3.20;;;23.40;62.40;;;;;;7807439;28;20600;-51
2022/01/24 18:25:27;;;;;;;3.90;3.45;;;23.30;62.30;;;;;;7807283;28;20170;-53
2022/01/24 18:29:13;;;;;;;6.00;3.75;;;23.30;62.30;;;;;;7806879;28;20289;-54
2022/01/24 18:32:59;;;;;;;5.13;3.53;;;23.30;62.20;;;;;;7807307;28;20206;-51
2022/01/24 18:36:44;;;;;;;4.40;3.85;;;23.30;62.20;;;;;;7807061;28;20250;-53
2022/01/24 18:40:30;;;;;;;4.00;3.50;;;23.30;62.10;;;;;;7806619;28;20233;-53
2022/01/24 18:44:23;;;;;;;4.68;3.33;;;23.20;61.90;;;;;;7807043;28;20549;-55
2022/01/24 18:48:09;;;;;;;3.28;2.97;;;23.20;61.90;;;;;;7806496;28;20210;-57
2022/01/24 18:51:55;;;;;;;4.28;3.50;;;23.20;62.00;;;;;;7806726;28;20183;-53
2022/01/24 18:55:40;;;;;;;3.83;3.42;;;23.20;61.90;;;;;;7806641;28;20257;-55
2022/01/24 18:59:30;;;;;;;3.55;3.25;;;23.10;62.00;;;;;;7806361;28;20602;-56
2022/01/24 19:03:16;;;;;;;4.63;3.03;;;23.00;62.00;;;;;;7806617;28;20190;-52
2022/01/24 19:07:02;;;;;;;7.40;3.22;;;23.00;62.00;;;;;;7806578;28;20183;-54
2022/01/24 19:10:48;;;;;;;4.05;3.42;;;23.00;62.00;;;;;;7806146;28;20206;-52
2022/01/24 19:14:34;;;;;;;3.70;3.40;;;22.90;62.00;;;;;;7806452;28;20234;-55
2022/01/24 19:18:27;;;;;;;4.20;3.30;;;22.80;63.00;;;;;;7806089;28;20256;-56
2022/01/24 19:26:16;;;;;;;5.13;3.20;;;22.70;62.30;;;;;;7810193;28;20186;-52
2022/01/24 19:30:02;;;;;;;3.70;3.20;;;22.70;62.40;;;;;;7811829;28;20558;-52
2022/01/24 19:33:48;;;;;;;3.45;3.15;;;22.70;62.40;;;;;;7811904;28;20684;-51
2022/01/24 19:37:34;;;;;;;4.70;3.58;;;22.60;62.40;;;;;;7811428;28;20554;-51
2022/01/24 19:41:19;;;;;;;3.58;2.95;;;22.60;62.50;;;;;;7811639;28;20244;-53
2022/01/24 19:45:05;;;;;;;5.70;3.20;;;22.50;62.60;;;;;;7811371;28;20187;-51
2022/01/24 19:48:54;;;;;;;4.43;3.63;;;22.50;62.60;;;;;;7811091;28;20198;-51
2022/01/24 19:52:39;;;;;;;4.13;3.17;;;22.40;62.60;;;;;;7811163;28;20202;-52
2022/01/24 19:56:28;;;;;;;3.38;3.08;;;22.40;62.80;;;;;;7811414;28;20178;-52
2022/01/24 20:00:15;;;;;;;3.33;3.00;;;22.30;62.90;;;;;;7810700;28;20190;-52
2022/01/24 20:04:01;;;;;;;3.67;3.05;;;22.30;63.00;;;;;;7810926;28;20190;-51
2022/01/24 20:07:49;;;;;;;4.07;3.15;;;22.30;63.10;;;;;;7810464;28;20285;-51
2022/01/24 20:11:34;;;;;;;3.25;2.92;;;22.20;63.10;;;;;;7810835;28;20240;-51
2022/01/24 20:15:20;;;;;;;3.50;2.97;;;22.20;63.10;;;;;;7810720;28;20203;-53
2022/01/24 20:19:05;;;;;;;3.35;3.05;;;22.10;63.10;;;;;;7810256;28;20191;-52
2022/01/24 20:22:51;;;;;;;5.38;2.95;;;22.10;63.20;;;;;;7810387;28;20206;-52
2022/01/24 20:26:37;;;;;;;9.68;3.22;;;22.10;63.50;;;;;;7810240;28;20171;-53
2022/01/24 20:30:23;;;;;;;11.57;3.30;;;22.00;63.60;;;;;;7810247;28;20688;-50
2022/01/24 20:34:08;;;;;;;6.70;2.80;;;22.00;63.80;;;;;;7809950;28;20700;-53
2022/01/24 20:37:55;;;;;;;30.25;3.58;;;22.00;63.80;;;;;;7808803;28;20260;-53
2022/01/24 20:41:40;;;;;;;23.13;4.25;;;21.90;63.30;;;;;;7838403;28;20201;-53
2022/01/24 20:45:26;;;;;;;120.65;9.25;;;21.90;63.80;;;;;;7840551;28;20190;-52
2022/01/24 20:49:12;;;;;;;80.20;6.43;;;21.90;64.70;;;;;;7834930;28;20854;-50
2022/01/24 20:52:59;;;;;;;39.50;4.10;;;21.90;64.20;;;;;;7811160;28;20194;-50
2022/01/24 20:56:45;;;;;;;39.65;4.00;;;21.90;63.30;;;;;;7815410;28;20271;-50
2022/01/24 21:00:33;;;;;;;46.90;5.40;;;21.80;63.90;;;;;;7816615;28;20202;-52
2022/01/24 21:04:18;;;;;;;54.85;5.78;;;21.80;64.10;;;;;;7819535;28;20186;-54
2022/01/24 21:08:04;;;;;;;43.60;4.53;;;21.80;64.60;;;;;;7830132;28;20209;-52
2022/01/24 21:11:55;;;;;;;40.03;4.65;;;21.80;64.70;;;;;;7809450;28;20186;-54
2022/01/24 21:15:41;;;;;;;30.05;4.15;;;21.80;65.10;;;;;;7823112;28;20186;-54
2022/01/24 21:19:26;;;;;;;25.50;4.00;;;21.80;65.70;;;;;;7828783;28;20217;-54
2022/01/24 21:23:12;;;;;;;33.22;4.60;;;21.80;65.40;;;;;;7807746;28;20190;-52
2022/01/24 21:26:58;;;;;;;31.15;3.80;;;21.80;66.00;;;;;;7838497;28;20178;-50
2022/01/24 21:30:45;;;;;;;25.45;4.03;;;21.70;66.10;;;;;;7810894;28;20246;-50
2022/01/24 21:34:58;;;;;;;29.70;3.88;;;21.80;66.80;;;;;;7816988;28;20221;-52
2022/01/24 21:38:42;;;;;;;20.58;4.03;;;21.80;66.60;;;;;;7837127;28;20293;-49